Selkirk, United Kingdom
Current Conditions -  °F | °C
As of 6:20 PM on Sunday 25 Jan 2015 (Local Time) from EGPH Reporting Station
Light Rain Light Rain  
Wind Chill: 50°   Ceiling: 1000
Heat Index: 50°   Visibility: 2.8mi
Dew Point: 46°   Wind: 16mph
Humidity: 87%   Direction: 220°SW
Pressure: 29.97"   Gusts: NA
Location:  55.55°N, 2.84°W
Report Text: EGPH 251820Z 22014KT 4500 -RA BKN010 BKN014 10/08 Q1015
Loading
Personal Weather Stations






























Interactive Weather Map New forecast layout! Learn more

10-Day Weather Forecast

Advertisements
Track Severe Weather on mobile